Time;durP1;ratioP1;P1;durP2;ratioP2;P2;SDS_P1;SDS_P2;PMS_P1;PMS_P2;Temp;Humidity;BMP_temperature;BMP_pressure;BME280_temperature;BME280_humidity;BME280_pressure;Samples;Min_cycle;Max_cycle;Signal;HPM_P1;HPM_P2
2022/04/09 00:02:05;;;;;;;1999.90;999.90;;;;;;;-151.59;100.00;55400.94;4998534;28;20321;-71
2022/04/09 00:04:34;;;;;;;1999.90;999.90;;;;;;;-151.59;100.00;55400.94;5013546;28;20233;-71
2022/04/09 00:07:03;;;;;;;1999.90;999.90;;;;;;;-151.59;100.00;55400.94;5005177;28;20701;-73
2022/04/09 00:09:30;;;;;;;1999.90;999.90;;;;;;;-151.59;100.00;55400.94;5008645;28;20272;-72
2022/04/09 00:11:58;;;;;;;1999.90;999.90;;;;;;;-151.59;100.00;55400.94;5007683;28;20238;-71
2022/04/09 00:14:26;;;;;;;1999.90;999.90;;;;;;;-151.59;100.00;55400.94;5003121;28;20297;-70
2022/04/09 00:16:54;;;;;;;1999.90;999.90;;;;;;;-151.59;100.00;55400.94;4997037;28;20313;-70
2022/04/09 00:19:21;;;;;;;1999.90;999.90;;;;;;;-151.59;100.00;55400.94;5003293;28;20264;-72
2022/04/09 00:21:50;;;;;;;1999.90;999.90;;;;;;;-151.59;100.00;55400.94;5005170;28;20676;-73
2022/04/09 00:24:19;;;;;;;1999.90;999.90;;;;;;;-151.59;100.00;55400.94;5008118;28;20240;-71
2022/04/09 00:26:46;;;;;;;1999.90;999.90;;;;;;;-151.59;100.00;55400.94;5003792;28;20355;-71
2022/04/09 00:29:14;;;;;;;1999.90;999.90;;;;;;;-151.59;100.00;55400.94;5000673;28;20230;-72
2022/04/09 00:31:41;;;;;;;1999.90;999.90;;;;;;;-151.59;100.00;55400.94;5006334;28;20292;-72
2022/04/09 00:34:09;;;;;;;1999.90;999.90;;;;;;;-151.59;100.00;55400.94;5011345;28;20241;-71
2022/04/09 00:36:37;;;;;;;1999.90;999.90;;;;;;;-151.59;100.00;55400.94;4995087;28;20233;-71
2022/04/09 00:39:06;;;;;;;1999.90;999.90;;;;;;;-151.59;100.00;55400.94;5005418;28;20249;-72
2022/04/09 00:41:34;;;;;;;1999.90;999.90;;;;;;;-151.59;100.00;55400.94;5014009;28;20238;-71
2022/04/09 00:44:01;;;;;;;1999.90;999.90;;;;;;;-151.59;100.00;55400.94;5001469;28;20320;-71
2022/04/09 00:46:29;;;;;;;1999.90;999.90;;;;;;;-151.59;100.00;55400.94;5007998;28;20684;-72
2022/04/09 00:48:57;;;;;;;1999.90;999.90;;;;;;;-151.59;100.00;55400.94;5001007;28;20321;-71
2022/04/09 00:51:24;;;;;;;1999.90;999.90;;;;;;;-151.59;100.00;55400.94;5001036;28;20229;-71
2022/04/09 00:53:53;;;;;;;1999.90;999.90;;;;;;;-151.59;100.00;55400.94;5000275;28;20253;-71
2022/04/09 00:56:22;;;;;;;1999.90;999.90;;;;;;;-151.59;100.00;55400.94;5001413;28;20234;-71
2022/04/09 00:58:54;;;;;;;1999.90;999.90;;;;;;;-151.59;100.00;55400.94;5008772;28;20246;-72
2022/04/09 01:01:23;;;;;;;1999.90;999.90;;;;;;;-151.59;100.00;55400.94;5001978;28;20245;-71
2022/04/09 01:03:52;;;;;;;1999.90;999.90;;;;;;;-151.59;100.00;55400.94;5001498;28;20648;-72
2022/04/09 01:06:19;;;;;;;1999.90;999.90;;;;;;;-151.59;100.00;55400.94;5002009;28;20234;-73
2022/04/09 01:08:47;;;;;;;1999.90;999.90;;;;;;;-151.59;100.00;55400.94;4998805;28;21470;-72
2022/04/09 01:11:16;;;;;;;1999.90;999.90;;;;;;;-151.59;100.00;55400.94;4995091;28;20266;-72
2022/04/09 01:13:45;;;;;;;1999.90;999.90;;;;;;;-151.59;100.00;55400.94;4986594;28;20316;-72
2022/04/09 01:16:13;;;;;;;1999.90;999.90;;;;;;;-151.59;100.00;55400.94;4988814;28;20237;-73
2022/04/09 01:18:43;;;;;;;1999.90;999.90;;;;;;;-151.59;100.00;55400.94;5001035;28;20237;-72
2022/04/09 01:21:15;;;;;;;1999.90;999.90;;;;;;;-151.59;100.00;55400.94;4996255;28;20756;-72
2022/04/09 01:23:44;;;;;;;1999.90;999.90;;;;;;;-151.59;100.00;55400.94;4984802;28;20312;-72
2022/04/09 01:26:12;;;;;;;1999.90;999.90;;;;;;;-151.59;100.00;55400.94;5002529;28;21326;-72
2022/04/09 01:28:43;;;;;;;1999.90;999.90;;;;;;;-151.59;100.00;55400.94;5002895;28;20230;-72
2022/04/09 01:31:11;;;;;;;1999.90;999.90;;;;;;;-151.59;100.00;55400.94;5013529;28;20329;-71
2022/04/09 01:33:39;;;;;;;1999.90;999.90;;;;;;;-151.59;100.00;55400.94;4984791;28;20663;-72
2022/04/09 01:36:08;;;;;;;1999.90;999.90;;;;;;;-151.59;100.00;55400.94;5008915;28;20284;-71
2022/04/09 01:38:37;;;;;;;1999.90;999.90;;;;;;;-151.59;100.00;55400.94;4985627;28;20231;-72
2022/04/09 01:41:06;;;;;;;1999.90;999.90;;;;;;;-151.59;100.00;55400.94;4985369;28;20262;-72
2022/04/09 01:43:41;;;;;;;1999.90;999.90;;;;;;;-151.59;100.00;55400.94;4987425;28;20776;-72
2022/04/09 01:46:10;;;;;;;1999.90;999.90;;;;;;;-151.59;100.00;55400.94;5001126;28;20233;-71
2022/04/09 01:48:38;;;;;;;1999.90;999.90;;;;;;;-151.59;100.00;55400.94;5003181;28;20229;-71
2022/04/09 01:51:07;;;;;;;1999.90;999.90;;;;;;;-151.59;100.00;55400.94;4988901;28;20230;-72
2022/04/09 01:53:36;;;;;;;1999.90;999.90;;;;;;;-151.59;100.00;55400.94;4991864;28;20332;-72
2022/04/09 01:56:04;;;;;;;1999.90;999.90;;;;;;;-151.59;100.00;55400.94;5023523;28;20713;-71
2022/04/09 01:58:38;;;;;;;1999.90;999.90;;;;;;;-151.59;100.00;55400.94;4988678;28;20233;-72
2022/04/09 02:01:06;;;;;;;1999.90;999.90;;;;;;;-151.59;100.00;55400.94;4999508;28;20265;-71
2022/04/09 02:03:34;;;;;;;1999.90;999.90;;;;;;;-151.59;100.00;55400.94;4984071;28;20605;-72
2022/04/09 02:06:02;;;;;;;1999.90;999.90;;;;;;;-151.59;100.00;55400.94;4984660;28;20233;-71
2022/04/09 02:08:30;;;;;;;1999.90;999.90;;;;;;;-151.59;100.00;55400.94;4989753;28;20229;-72
2022/04/09 02:10:58;;;;;;;1999.90;999.90;;;;;;;-151.59;100.00;55400.94;4986381;28;20230;-71
2022/04/09 02:13:27;;;;;;;1999.90;999.90;;;;;;;-151.59;100.00;55400.94;5005344;28;20232;-71
2022/04/09 02:15:57;;;;;;;1999.90;999.90;;;;;;;-151.59;100.00;55400.94;4996846;28;20253;-71
2022/04/09 02:18:28;;;;;;;1999.90;999.90;;;;;;;-151.59;100.00;55400.94;5009824;28;20256;-72
2022/04/09 02:20:56;;;;;;;1999.90;999.90;;;;;;;-151.59;100.00;55400.94;4985939;28;20222;-71
2022/04/09 02:23:24;;;;;;;1999.90;999.90;;;;;;;-151.59;100.00;55400.94;5008561;28;20253;-72
2022/04/09 02:25:52;;;;;;;1999.90;999.90;;;;;;;-151.59;100.00;55400.94;5018967;28;20238;-71
2022/04/09 02:28:19;;;;;;;1999.90;999.90;;;;;;;-151.59;100.00;55400.94;4989695;28;20227;-71
2022/04/09 02:30:48;;;;;;;1999.90;999.90;;;;;;;-151.59;100.00;55400.94;4981233;28;20229;-71
2022/04/09 02:33:27;;;;;;;1999.90;999.90;;;;;;;-151.59;100.00;55400.94;4988228;28;20225;-71
2022/04/09 02:35:55;;;;;;;1999.90;999.90;;;;;;;-151.59;100.00;55400.94;5001644;28;20292;-71
2022/04/09 02:38:24;;;;;;;1999.90;999.90;;;;;;;-151.59;100.00;55400.94;4981545;28;20229;-71
2022/04/09 02:40:51;;;;;;;1999.90;999.90;;;;;;;-151.59;100.00;55400.94;5004778;28;20253;-71
2022/04/09 02:43:21;;;;;;;1999.90;999.90;;;;;;;-151.59;100.00;55400.94;4983562;28;20242;-71
2022/04/09 02:45:49;;;;;;;1999.90;999.90;;;;;;;-151.59;100.00;55400.94;5001476;28;20230;-71
2022/04/09 02:48:19;;;;;;;1999.90;999.90;;;;;;;-151.59;100.00;55400.94;4998195;28;20230;-71
2022/04/09 02:50:48;;;;;;;1999.90;999.90;;;;;;;-151.59;100.00;55400.94;5000675;28;20240;-71
2022/04/09 02:53:19;;;;;;;1999.90;999.90;;;;;;;-151.59;100.00;55400.94;4978317;28;20240;-71
2022/04/09 02:55:47;;;;;;;1999.90;999.90;;;;;;;-151.59;100.00;55400.94;4999052;28;20403;-71
2022/04/09 02:58:15;;;;;;;1999.90;999.90;;;;;;;-151.59;100.00;55400.94;4986011;28;21009;-71
2022/04/09 03:00:45;;;;;;;1999.90;999.90;;;;;;;-151.59;100.00;55400.94;4988316;28;21779;-71
2022/04/09 03:03:14;;;;;;;1999.90;999.90;;;;;;;-151.59;100.00;55400.94;5002593;28;21220;-72
2022/04/09 03:05:49;;;;;;;1999.90;999.90;;;;;;;-151.59;100.00;55400.94;5007931;28;20245;-72
2022/04/09 03:08:16;;;;;;;1999.90;999.90;;;;;;;-151.59;100.00;55400.94;5005394;28;20296;-72
2022/04/09 03:10:44;;;;;;;1999.90;999.90;;;;;;;-151.59;100.00;55400.94;5003799;28;20667;-72
2022/04/09 03:13:12;;;;;;;1999.90;999.90;;;;;;;-151.59;100.00;55400.94;5004532;28;20321;-72
2022/04/09 03:15:41;;;;;;;1999.90;999.90;;;;;;;-151.59;100.00;55400.94;4986711;28;20422;-72
2022/04/09 03:18:10;;;;;;;1999.90;999.90;;;;;;;-151.59;100.00;55400.94;4989203;28;20234;-73
2022/04/09 03:20:38;;;;;;;1999.90;999.90;;;;;;;-151.59;100.00;55400.94;5002572;28;20325;-72
2022/04/09 03:23:09;;;;;;;1999.90;999.90;;;;;;;-151.59;100.00;55400.94;5004772;28;20329;-72
2022/04/09 03:25:44;;;;;;;1999.90;999.90;;;;;;;-151.59;100.00;55400.94;4986490;28;20265;-71
2022/04/09 03:28:13;;;;;;;1999.90;999.90;;;;;;;-151.59;100.00;55400.94;5004120;28;20261;-72
2022/04/09 03:30:42;;;;;;;1999.90;999.90;;;;;;;-151.59;100.00;55400.94;4993426;28;20276;-71
2022/04/09 03:33:10;;;;;;;1999.90;999.90;;;;;;;-151.59;100.00;55400.94;5010155;28;20329;-71
2022/04/09 03:35:38;;;;;;;1999.90;999.90;;;;;;;-151.59;100.00;55400.94;5001901;28;20685;-72
2022/04/09 03:38:12;;;;;;;1999.90;999.90;;;;;;;-151.59;100.00;55400.94;5003588;28;20782;-72
2022/04/09 03:40:47;;;;;;;1999.90;999.90;;;;;;;-151.59;100.00;55400.94;4988838;28;20431;-72
2022/04/09 03:43:17;;;;;;;1999.90;999.90;;;;;;;-151.59;100.00;55400.94;4986182;28;20247;-71
2022/04/09 03:45:45;;;;;;;1999.90;999.90;;;;;;;-151.59;100.00;55400.94;5010327;28;20253;-72
2022/04/09 03:48:14;;;;;;;1999.90;999.90;;;;;;;-151.59;100.00;55400.94;4989641;28;20322;-72
2022/04/09 03:50:44;;;;;;;1999.90;999.90;;;;;;;-151.59;100.00;55400.94;4987793;28;20230;-72
2022/04/09 03:53:19;;;;;;;1999.90;999.90;;;;;;;-151.59;100.00;55400.94;4986265;28;20242;-72
2022/04/09 03:55:51;;;;;;;1999.90;999.90;;;;;;;-151.59;100.00;55400.94;5003893;28;20284;-72
2022/04/09 03:58:20;;;;;;;1999.90;999.90;;;;;;;-151.59;100.00;55400.94;4987455;28;20297;-71
2022/04/09 04:00:49;;;;;;;1999.90;999.90;;;;;;;-151.59;100.00;55400.94;4985323;28;20226;-72
2022/04/09 04:03:19;;;;;;;1999.90;999.90;;;;;;;-151.59;100.00;55400.94;5004623;28;20300;-71
2022/04/09 04:05:48;;;;;;;1999.90;999.90;;;;;;;-151.59;100.00;55400.94;4987270;28;20321;-76
2022/04/09 04:08:18;;;;;;;1999.90;999.90;;;;;;;-151.59;100.00;55400.94;4998169;28;20322;-75
2022/04/09 04:10:47;;;;;;;1999.90;999.90;;;;;;;-151.59;100.00;55400.94;4986431;28;21338;-75
2022/04/09 04:13:21;;;;;;;1999.90;999.90;;;;;;;-151.59;100.00;55400.94;5001529;28;20233;-75
2022/04/09 04:15:50;;;;;;;1999.90;999.90;;;;;;;-151.59;100.00;55400.94;5005331;28;20725;-74
2022/04/09 04:18:19;;;;;;;1999.90;999.90;;;;;;;-151.59;100.00;55400.94;4982936;28;20230;-74
2022/04/09 04:20:50;;;;;;;1999.90;999.90;;;;;;;-151.59;100.00;55400.94;5016301;28;20230;-75
2022/04/09 04:23:20;;;;;;;1999.90;999.90;;;;;;;-151.59;100.00;55400.94;4999001;28;20235;-74
2022/04/09 04:25:47;;;;;;;1999.90;999.90;;;;;;;-151.59;100.00;55400.94;5001979;28;20686;-75
2022/04/09 04:28:15;;;;;;;1999.90;999.90;;;;;;;-151.59;100.00;55400.94;4992212;28;20237;-75
2022/04/09 04:30:44;;;;;;;1999.90;999.90;;;;;;;-151.59;100.00;55400.94;5007482;28;20232;-75
2022/04/09 04:33:12;;;;;;;1999.90;999.90;;;;;;;-151.59;100.00;55400.94;5003350;28;20236;-72
2022/04/09 04:35:44;;;;;;;1999.90;999.90;;;;;;;-151.59;100.00;55400.94;4987257;28;21045;-72
2022/04/09 04:38:13;;;;;;;1999.90;999.90;;;;;;;-151.59;100.00;55400.94;4997168;28;20384;-72
2022/04/09 04:40:45;;;;;;;1999.90;999.90;;;;;;;-151.59;100.00;55400.94;4999513;28;20300;-73
2022/04/09 04:43:13;;;;;;;1999.90;999.90;;;;;;;-151.59;100.00;55400.94;4998096;28;20265;-72
2022/04/09 04:45:41;;;;;;;1999.90;999.90;;;;;;;-151.59;100.00;55400.94;4986796;28;20280;-73
2022/04/09 04:48:13;;;;;;;1999.90;999.90;;;;;;;-151.59;100.00;55400.94;4987425;28;20265;-73
2022/04/09 04:50:47;;;;;;;1999.90;999.90;;;;;;;-151.59;100.00;55400.94;5003378;28;20739;-74
2022/04/09 04:53:16;;;;;;;1999.90;999.90;;;;;;;-151.59;100.00;55400.94;5000957;28;20245;-73
2022/04/09 04:55:51;;;;;;;1999.90;999.90;;;;;;;-151.59;100.00;55400.94;4977162;28;20249;-71
2022/04/09 04:58:21;;;;;;;1999.90;999.90;;;;;;;-151.59;100.00;55400.94;5003588;28;20234;-72
2022/04/09 05:00:56;;;;;;;1999.90;999.90;;;;;;;-151.59;100.00;55400.94;4982145;28;20233;-71
2022/04/09 05:03:24;;;;;;;1999.90;999.90;;;;;;;-151.59;100.00;55400.94;4999922;28;20245;-72
2022/04/09 05:05:58;;;;;;;1999.90;999.90;;;;;;;-151.59;100.00;55400.94;4986179;28;20257;-71
2022/04/09 05:08:26;;;;;;;1999.90;999.90;;;;;;;-151.59;100.00;55400.94;5006303;28;20283;-69
2022/04/09 05:10:55;;;;;;;1999.90;999.90;;;;;;;-151.59;100.00;55400.94;4991033;28;20286;-69
2022/04/09 05:13:28;;;;;;;1999.90;999.90;;;;;;;-151.59;100.00;55400.94;4985780;28;20237;-72
2022/04/09 05:15:56;;;;;;;1999.90;999.90;;;;;;;-151.59;100.00;55400.94;5001863;28;20230;-73
2022/04/09 05:18:24;;;;;;;1999.90;999.90;;;;;;;-151.59;100.00;55400.94;5011229;28;20226;-70
2022/04/09 05:20:53;;;;;;;1999.90;999.90;;;;;;;-151.59;100.00;55400.94;5007014;28;20229;-72
2022/04/09 05:23:22;;;;;;;1999.90;999.90;;;;;;;-151.59;100.00;55400.94;4990081;28;20245;-69
2022/04/09 05:25:50;;;;;;;1999.90;999.90;;;;;;;-151.59;100.00;55400.94;4986753;28;20240;-70
2022/04/09 05:28:20;;;;;;;1999.90;999.90;;;;;;;-151.59;100.00;55400.94;5007921;28;20225;-73
2022/04/09 05:30:50;;;;;;;1999.90;999.90;;;;;;;-151.59;100.00;55400.94;4991708;28;21815;-70
2022/04/09 05:33:19;;;;;;;1999.90;999.90;;;;;;;-151.59;100.00;55400.94;5009823;28;20960;-70
2022/04/09 05:35:56;;;;;;;1999.90;999.90;;;;;;;-151.59;100.00;55400.94;5001923;28;20233;-71
2022/04/09 05:38:26;;;;;;;1999.90;999.90;;;;;;;-151.59;100.00;55400.94;4989386;28;20222;-70
2022/04/09 05:40:54;;;;;;;1999.90;999.90;;;;;;;-151.59;100.00;55400.94;4985016;28;20257;-71
2022/04/09 05:43:24;;;;;;;1999.90;999.90;;;;;;;-151.59;100.00;55400.94;4989772;28;20833;-71
2022/04/09 05:45:57;;;;;;;1999.90;999.90;;;;;;;-151.59;100.00;55400.94;4999429;28;20263;-71
2022/04/09 05:48:31;;;;;;;1999.90;999.90;;;;;;;-151.59;100.00;55400.94;5002731;28;20257;-71
2022/04/09 05:50:59;;;;;;;1999.90;999.90;;;;;;;-151.59;100.00;55400.94;4985159;28;20238;-71
2022/04/09 05:53:31;;;;;;;1999.90;999.90;;;;;;;-151.59;100.00;55400.94;4995711;28;20233;-71
2022/04/09 05:56:00;;;;;;;1999.90;999.90;;;;;;;-151.59;100.00;55400.94;4981668;28;20253;-70
2022/04/09 05:58:36;;;;;;;1999.90;999.90;;;;;;;-151.59;100.00;55400.94;5001492;28;20235;-70
2022/04/09 06:01:06;;;;;;;1999.90;999.90;;;;;;;-151.59;100.00;55400.94;5005810;28;20663;-72
2022/04/09 06:03:35;;;;;;;1999.90;999.90;;;;;;;-151.59;100.00;55400.94;5000503;28;20233;-71
2022/04/09 06:06:05;;;;;;;1999.90;999.90;;;;;;;-151.59;100.00;55400.94;4983028;28;20230;-71
2022/04/09 06:08:47;;;;;;;1999.90;999.90;;;;;;;-151.59;100.00;55400.94;4985850;28;20220;-71
2022/04/09 06:11:24;;;;;;;1999.90;999.90;;;;;;;-151.59;100.00;55400.94;4998211;28;20221;-71
2022/04/09 06:13:59;;;;;;;1999.90;999.90;;;;;;;-151.59;100.00;55400.94;4999528;28;20241;-71
2022/04/09 06:16:30;;;;;;;1999.90;999.90;;;;;;;-151.59;100.00;55400.94;5000576;28;20323;-72
2022/04/09 06:19:00;;;;;;;1999.90;999.90;;;;;;;-151.59;100.00;55400.94;4986554;28;20260;-71
2022/04/09 06:21:29;;;;;;;1999.90;999.90;;;;;;;-151.59;100.00;55400.94;4993596;28;20419;-72
2022/04/09 06:23:58;;;;;;;1999.90;999.90;;;;;;;-151.59;100.00;55400.94;4995091;28;20419;-72
2022/04/09 06:26:27;;;;;;;1999.90;999.90;;;;;;;-151.59;100.00;55400.94;4997468;28;20252;-72
2022/04/09 06:28:56;;;;;;;1999.90;999.90;;;;;;;-151.59;100.00;55400.94;4987435;28;20675;-71
2022/04/09 06:31:25;;;;;;;1999.90;999.90;;;;;;;-151.59;100.00;55400.94;4985172;28;20404;-72
2022/04/09 06:33:54;;;;;;;1999.90;999.90;;;;;;;-151.59;100.00;55400.94;4991890;28;20887;-71
2022/04/09 06:36:23;;;;;;;1999.90;999.90;;;;;;;-151.59;100.00;55400.94;4987779;28;20454;-72
2022/04/09 06:38:50;;;;;;;1999.90;999.90;;;;;;;-151.59;100.00;55400.94;5006996;28;20590;-73
2022/04/09 06:41:28;;;;;;;1999.90;999.90;;;;;;;-151.59;100.00;55400.94;4987708;28;20418;-71
2022/04/09 06:43:58;;;;;;;1999.90;999.90;;;;;;;-151.59;100.00;55400.94;4974021;28;20491;-72
2022/04/09 06:46:53;;;;;;;1999.90;999.90;;;;;;;-151.59;100.00;55400.94;4994664;28;20408;-72
2022/04/09 06:49:29;;;;;;;1999.90;999.90;;;;;;;-151.59;100.00;55400.94;4987332;28;20233;-72
2022/04/09 06:52:09;;;;;;;1999.90;999.90;;;;;;;-151.59;100.00;55400.94;4986521;28;20237;-72
2022/04/09 06:55:00;;;;;;;1999.90;999.90;;;;;;;-151.59;100.00;55400.94;4993786;28;20577;-72
2022/04/09 06:57:32;;;;;;;1999.90;999.90;;;;;;;-151.59;100.00;55400.94;4998572;28;20398;-72
2022/04/09 07:00:01;;;;;;;1999.90;999.90;;;;;;;-151.59;100.00;55400.94;5001213;28;20495;-72
2022/04/09 07:02:34;;;;;;;1999.90;999.90;;;;;;;-151.59;100.00;55400.94;5008982;28;20260;-72
2022/04/09 07:05:02;;;;;;;1999.90;999.90;;;;;;;-151.59;100.00;55400.94;4987381;28;20883;-72
2022/04/09 07:07:30;;;;;;;1999.90;999.90;;;;;;;-151.59;100.00;55400.94;5007959;28;20408;-74
2022/04/09 07:10:05;;;;;;;1999.90;999.90;;;;;;;-151.59;100.00;55400.94;5008054;28;20459;-71
2022/04/09 07:12:32;;;;;;;1999.90;999.90;;;;;;;-151.59;100.00;55400.94;5003902;28;20402;-71
2022/04/09 07:15:01;;;;;;;1999.90;999.90;;;;;;;-151.59;100.00;55400.94;5006045;28;20238;-72
2022/04/09 07:17:29;;;;;;;1999.90;999.90;;;;;;;-151.59;100.00;55400.94;5007302;28;20234;-72
2022/04/09 07:19:59;;;;;;;1999.90;999.90;;;;;;;-151.59;100.00;55400.94;4996509;28;20426;-71
2022/04/09 07:22:27;;;;;;;1999.90;999.90;;;;;;;-151.59;100.00;55400.94;5001433;28;20443;-72
2022/04/09 07:24:55;;;;;;;1999.90;999.90;;;;;;;-151.59;100.00;55400.94;5003658;28;20400;-72
2022/04/09 07:27:35;;;;;;;1999.90;999.90;;;;;;;-151.59;100.00;55400.94;4997511;28;20399;-72
2022/04/09 07:30:04;;;;;;;1999.90;999.90;;;;;;;-151.59;100.00;55400.94;4989778;28;20403;-72
2022/04/09 07:32:31;;;;;;;1999.90;999.90;;;;;;;-151.59;100.00;55400.94;4994815;28;20557;-72
2022/04/09 07:35:01;;;;;;;1999.90;999.90;;;;;;;-151.59;100.00;55400.94;5002313;28;20390;-71
2022/04/09 07:37:29;;;;;;;1999.90;999.90;;;;;;;-151.59;100.00;55400.94;4996788;28;20415;-70
2022/04/09 07:39:57;;;;;;;1999.90;999.90;;;;;;;-151.59;100.00;55400.94;5004460;28;20416;-72
2022/04/09 07:42:25;;;;;;;1999.90;999.90;;;;;;;-151.59;100.00;55400.94;5000031;28;20415;-72
2022/04/09 07:44:52;;;;;;;1999.90;999.90;;;;;;;-151.59;100.00;55400.94;4998448;28;20411;-72
2022/04/09 07:47:20;;;;;;;1999.90;999.90;;;;;;;-151.59;100.00;55400.94;4994710;28;20562;-73
2022/04/09 07:49:49;;;;;;;1999.90;999.90;;;;;;;-151.59;100.00;55400.94;4994674;28;20496;-72
2022/04/09 07:52:18;;;;;;;1999.90;999.90;;;;;;;-151.59;100.00;55400.94;4998168;28;20418;-72
2022/04/09 07:54:45;;;;;;;1999.90;999.90;;;;;;;-151.59;100.00;55400.94;4998243;28;20437;-72
2022/04/09 07:57:13;;;;;;;1999.90;999.90;;;;;;;-151.59;100.00;55400.94;4996266;28;20424;-71
2022/04/09 07:59:41;;;;;;;1999.90;999.90;;;;;;;-151.59;100.00;55400.94;4999277;28;20400;-72
2022/04/09 08:02:09;;;;;;;1999.90;999.90;;;;;;;-151.59;100.00;55400.94;4997912;28;20411;-73
2022/04/09 08:04:36;;;;;;;1999.90;999.90;;;;;;;-151.59;100.00;55400.94;4997055;28;20423;-73
2022/04/09 08:07:04;;;;;;;1999.90;999.90;;;;;;;-151.59;100.00;55400.94;4996013;28;21209;-73
2022/04/09 08:09:33;;;;;;;1999.90;999.90;;;;;;;-151.59;100.00;55400.94;4995593;28;20393;-73
2022/04/09 08:12:01;;;;;;;1999.90;999.90;;;;;;;-151.59;100.00;55400.94;4981455;28;20407;-75
2022/04/09 08:14:31;;;;;;;1999.90;999.90;;;;;;;-151.59;100.00;55400.94;4982957;28;20502;-72
2022/04/09 08:16:59;;;;;;;1999.90;999.90;;;;;;;-151.59;100.00;55400.94;4994599;28;20459;-70
2022/04/09 08:19:27;;;;;;;1999.90;999.90;;;;;;;-151.59;100.00;55400.94;4995795;28;20410;-70
2022/04/09 08:21:56;;;;;;;1999.90;999.90;;;;;;;-151.59;100.00;55400.94;4976379;28;20495;-69
2022/04/09 08:24:24;;;;;;;1999.90;999.90;;;;;;;-151.59;100.00;55400.94;4994042;28;20404;-70
2022/04/09 08:26:53;;;;;;;1999.90;999.90;;;;;;;-151.59;100.00;55400.94;5003274;28;20982;-69
2022/04/09 08:29:20;;;;;;;1999.90;999.90;;;;;;;-151.59;100.00;55400.94;4995185;28;20451;-70
2022/04/09 08:31:48;;;;;;;1999.90;999.90;;;;;;;-151.59;100.00;55400.94;5000067;28;21633;-69
2022/04/09 08:34:17;;;;;;;1999.90;999.90;;;;;;;-151.59;100.00;55400.94;4996418;28;20409;-70
2022/04/09 08:36:45;;;;;;;1999.90;999.90;;;;;;;-151.59;100.00;55400.94;4995849;28;20910;-70
2022/04/09 08:39:13;;;;;;;1999.90;999.90;;;;;;;-151.59;100.00;55400.94;4997939;28;20404;-69
2022/04/09 08:41:44;;;;;;;1999.90;999.90;;;;;;;-151.59;100.00;55400.94;4996087;28;21219;-69
2022/04/09 08:44:15;;;;;;;1999.90;999.90;;;;;;;-151.59;100.00;55400.94;5000065;28;20502;-69
2022/04/09 08:46:42;;;;;;;1999.90;999.90;;;;;;;-151.59;100.00;55400.94;4999207;28;20929;-69
2022/04/09 08:49:10;;;;;;;1999.90;999.90;;;;;;;-151.59;100.00;55400.94;5002675;28;20504;-68
2022/04/09 08:51:38;;;;;;;1999.90;999.90;;;;;;;-151.59;100.00;55400.94;4997533;28;20910;-70
2022/04/09 08:54:06;;;;;;;1999.90;999.90;;;;;;;-151.59;100.00;55400.94;5004159;28;20460;-70
2022/04/09 08:56:37;;;;;;;1999.90;999.90;;;;;;;-151.59;100.00;55400.94;5006898;28;20402;-70
2022/04/09 08:59:05;;;;;;;1999.90;999.90;;;;;;;-151.59;100.00;55400.94;5002206;28;20400;-70
2022/04/09 09:01:34;;;;;;;1999.90;999.90;;;;;;;-151.59;100.00;55400.94;4998741;28;21023;-70
2022/04/09 09:04:02;;;;;;;1999.90;999.90;;;;;;;-151.59;100.00;55400.94;5006121;28;20289;-68
2022/04/09 09:06:31;;;;;;;1999.90;999.90;;;;;;;-151.59;100.00;55400.94;5000542;28;20261;-69
2022/04/09 09:09:00;;;;;;;1999.90;999.90;;;;;;;-151.59;100.00;55400.94;4996834;28;20285;-69
2022/04/09 09:11:29;;;;;;;1999.90;999.90;;;;;;;-151.59;100.00;55400.94;4995761;28;20318;-69
2022/04/09 09:13:58;;;;;;;1999.90;999.90;;;;;;;-151.59;100.00;55400.94;4993825;28;20328;-69
2022/04/09 09:16:27;;;;;;;1999.90;999.90;;;;;;;-151.59;100.00;55400.94;4999799;28;20237;-69
2022/04/09 09:18:58;;;;;;;1999.90;999.90;;;;;;;-151.59;100.00;55400.94;4994866;28;20688;-69
2022/04/09 09:21:27;;;;;;;1999.90;999.90;;;;;;;-151.59;100.00;55400.94;4994429;28;20229;-69
2022/04/09 09:24:12;;;;;;;1999.90;999.90;;;;;;;-151.59;100.00;55400.94;4995317;28;20229;-69
2022/04/09 09:26:41;;;;;;;1999.90;999.90;;;;;;;-151.59;100.00;55400.94;4993858;28;20233;-69
2022/04/09 09:29:11;;;;;;;1999.90;999.90;;;;;;;-151.59;100.00;55400.94;5000940;28;20282;-68
2022/04/09 09:31:40;;;;;;;1999.90;999.90;;;;;;;-151.59;100.00;55400.94;4993022;28;20234;-69
2022/04/09 09:34:11;;;;;;;1999.90;999.90;;;;;;;-151.59;100.00;55400.94;4994746;28;20237;-69
2022/04/09 09:36:40;;;;;;;1999.90;999.90;;;;;;;-151.59;100.00;55400.94;5001295;28;20238;-69
2022/04/09 09:39:09;;;;;;;1999.90;999.90;;;;;;;-151.59;100.00;55400.94;5000526;28;20230;-68
2022/04/09 09:41:47;;;;;;;1999.90;999.90;;;;;;;-151.59;100.00;55400.94;4996036;28;20241;-68
2022/04/09 09:44:17;;;;;;;1999.90;999.90;;;;;;;-151.59;100.00;55400.94;4992855;28;20241;-69
2022/04/09 09:46:46;;;;;;;1999.90;999.90;;;;;;;-151.59;100.00;55400.94;4992023;28;20242;-69
2022/04/09 09:49:16;;;;;;;1999.90;999.90;;;;;;;-151.59;100.00;55400.94;4994827;28;20241;-69
2022/04/09 09:51:44;;;;;;;1999.90;999.90;;;;;;;-151.59;100.00;55400.94;5009917;28;20230;-69
2022/04/09 09:54:14;;;;;;;1999.90;999.90;;;;;;;-151.59;100.00;55400.94;4990449;28;21143;-69
2022/04/09 09:56:42;;;;;;;1999.90;999.90;;;;;;;-151.59;100.00;55400.94;4991002;28;20294;-70
2022/04/09 09:59:11;;;;;;;1999.90;999.90;;;;;;;-151.59;100.00;55400.94;4999717;28;20305;-70
2022/04/09 10:01:41;;;;;;;1999.90;999.90;;;;;;;-151.59;100.00;55400.94;5001267;28;20241;-69
2022/04/09 10:04:11;;;;;;;1999.90;999.90;;;;;;;-151.59;100.00;55400.94;4981598;28;20230;-69
2022/04/09 10:06:42;;;;;;;1999.90;999.90;;;;;;;-151.59;100.00;55400.94;4999083;28;20241;-69
2022/04/09 10:09:13;;;;;;;1999.90;999.90;;;;;;;-151.59;100.00;55400.94;4976891;28;20464;-69
2022/04/09 10:11:47;;;;;;;1999.90;999.90;;;;;;;-151.59;100.00;55400.94;4994354;28;20293;-68
2022/04/09 10:14:17;;;;;;;1999.90;999.90;;;;;;;-151.59;100.00;55400.94;4995270;28;20301;-69
2022/04/09 10:16:45;;;;;;;1999.90;999.90;;;;;;;-151.59;100.00;55400.94;4990631;28;20234;-69
2022/04/09 10:19:13;;;;;;;1999.90;999.90;;;;;;;-151.59;100.00;55400.94;4994579;28;20222;-69
2022/04/09 10:21:44;;;;;;;1999.90;999.90;;;;;;;-151.59;100.00;55400.94;4993985;28;20234;-69
2022/04/09 10:24:14;;;;;;;1999.90;999.90;;;;;;;-151.59;100.00;55400.94;4975484;28;20226;-69
2022/04/09 10:26:43;;;;;;;1999.90;999.90;;;;;;;-151.59;100.00;55400.94;4995694;28;20749;-69
2022/04/09 10:29:11;;;;;;;1999.90;999.90;;;;;;;-151.59;100.00;55400.94;5003064;28;20297;-69
2022/04/09 10:31:40;;;;;;;1999.90;999.90;;;;;;;-151.59;100.00;55400.94;5002239;28;20243;-69
2022/04/09 10:34:10;;;;;;;1999.90;999.90;;;;;;;-151.59;100.00;55400.94;5000397;28;20230;-69
2022/04/09 10:37:02;;;;;;;1999.90;999.90;;;;;;;-151.59;100.00;55400.94;5003566;28;20245;-70
2022/04/09 10:39:42;;;;;;;1999.90;999.90;;;;;;;-151.59;100.00;55400.94;4988683;28;20222;-70
2022/04/09 10:42:11;;;;;;;1999.90;999.90;;;;;;;-151.59;100.00;55400.94;5004097;28;20233;-69
2022/04/09 10:44:53;;;;;;;1999.90;999.90;;;;;;;-151.59;100.00;55400.94;4992017;28;20234;-69